createdAt,value
2019-02-27T00:00:47.362Z,3.51
2019-02-27T00:01:49.706Z,3.47
2019-02-27T00:02:47.340Z,3.60
2019-02-27T00:03:47.322Z,3.48
2019-02-27T00:04:47.325Z,3.48
2019-02-27T00:05:47.305Z,3.40
2019-02-27T00:06:47.863Z,3.31
2019-02-27T00:07:47.281Z,3.35
2019-02-27T00:08:47.294Z,3.39
2019-02-27T00:09:47.260Z,3.32
2019-02-27T00:10:47.255Z,3.35
2019-02-27T00:11:47.238Z,3.39
2019-02-27T00:12:47.231Z,3.36
2019-02-27T00:13:47.213Z,3.43
2019-02-27T00:14:47.208Z,3.40
2019-02-27T00:15:47.191Z,3.42
2019-02-27T00:16:47.192Z,3.43
2019-02-27T00:17:51.085Z,3.40
2019-02-27T00:18:47.186Z,3.40
2019-02-27T00:19:47.168Z,3.43
2019-02-27T00:20:47.140Z,3.43
2019-02-27T00:21:47.126Z,3.45
2019-02-27T00:22:50.243Z,3.39
2019-02-27T00:23:47.107Z,3.33
2019-02-27T00:24:47.095Z,3.18
2019-02-27T00:25:47.086Z,3.08
2019-02-27T00:26:47.074Z,2.99
2019-02-27T00:27:49.263Z,2.99
2019-02-27T00:28:47.054Z,3.10
2019-02-27T00:29:47.068Z,3.03
2019-02-27T00:30:47.028Z,2.99
2019-02-27T00:31:47.024Z,3.06
2019-02-27T00:32:50.990Z,3.05
2019-02-27T00:33:46.996Z,3.06
2019-02-27T00:34:47.001Z,3.11
2019-02-27T00:35:46.977Z,3.02
2019-02-27T00:36:46.968Z,3.08
2019-02-27T00:37:46.952Z,3.05
2019-02-27T00:38:46.948Z,3.06
2019-02-27T00:39:46.932Z,3.13
2019-02-27T00:40:46.930Z,3.11
2019-02-27T00:41:46.907Z,3.10
2019-02-27T00:42:46.907Z,3.06
2019-02-27T00:43:46.888Z,3.08
2019-02-27T00:44:46.872Z,3.10
2019-02-27T00:45:46.879Z,3.08
2019-02-27T00:46:47.085Z,3.05
2019-02-27T00:47:46.847Z,2.99
2019-02-27T00:48:46.840Z,3.05
2019-02-27T00:49:46.831Z,3.00
2019-02-27T00:50:46.814Z,2.99
2019-02-27T00:51:46.808Z,3.02
2019-02-27T00:52:50.902Z,3.10
2019-02-27T00:53:46.776Z,3.00
2019-02-27T00:54:46.766Z,2.96
2019-02-27T00:55:46.776Z,2.93
2019-02-27T00:56:46.752Z,2.95
2019-02-27T00:57:46.744Z,2.96
2019-02-27T00:58:46.722Z,3.10
2019-02-27T00:59:46.716Z,3.08
2019-02-27T01:00:46.704Z,3.05
2019-02-27T01:01:47.437Z,3.06
2019-02-27T01:02:46.687Z,3.05
2019-02-27T01:03:46.696Z,3.03
2019-02-27T01:04:46.660Z,3.11
2019-02-27T01:05:46.668Z,3.14
2019-02-27T01:06:47.605Z,3.06
2019-02-27T01:07:46.632Z,3.06
2019-02-27T01:08:46.622Z,3.05
2019-02-27T01:09:46.602Z,3.11
2019-02-27T01:10:46.598Z,3.10
2019-02-27T01:11:51.528Z,3.10
2019-02-27T01:12:47.580Z,3.14
2019-02-27T01:13:46.562Z,3.11
2019-02-27T01:14:46.560Z,3.13
2019-02-27T01:15:46.540Z,3.00
2019-02-27T01:16:47.721Z,3.02
2019-02-27T01:17:46.522Z,3.00
2019-02-27T01:18:46.528Z,3.03
2019-02-27T01:19:46.506Z,3.08
2019-02-27T01:20:46.679Z,3.05
2019-02-27T01:21:46.470Z,3.02
2019-02-27T01:22:46.465Z,2.99
2019-02-27T01:23:46.460Z,2.97
2019-02-27T01:24:49.954Z,3.06
2019-02-27T01:25:46.432Z,2.99
2019-02-27T01:26:46.422Z,2.97
2019-02-27T01:27:46.408Z,2.99
2019-02-27T01:28:46.427Z,2.95
2019-02-27T01:29:46.386Z,2.99
2019-02-27T01:30:46.379Z,2.96
2019-02-27T01:31:46.373Z,2.95
2019-02-27T01:32:46.352Z,2.96
2019-02-27T01:33:46.346Z,2.97
2019-02-27T01:34:46.333Z,2.96
2019-02-27T01:35:46.320Z,2.93
2019-02-27T01:36:46.314Z,2.97
2019-02-27T01:37:46.298Z,2.89
2019-02-27T01:38:46.290Z,2.97
2019-02-27T01:39:46.277Z,2.92
2019-02-27T01:40:46.267Z,2.97
2019-02-27T01:41:46.282Z,2.92
2019-02-27T01:42:46.257Z,2.90
2019-02-27T01:43:46.236Z,2.89
2019-02-27T01:44:46.578Z,2.95
2019-02-27T01:45:46.216Z,2.97
2019-02-27T01:46:46.202Z,2.93
2019-02-27T01:47:46.195Z,2.96
2019-02-27T01:48:46.186Z,2.97
2019-02-27T01:49:48.874Z,2.90
2019-02-27T01:50:46.161Z,2.90
2019-02-27T01:51:46.146Z,2.87
2019-02-27T01:52:46.148Z,2.82
2019-02-27T01:53:46.131Z,2.87
2019-02-27T01:54:48.847Z,2.85
2019-02-27T01:55:46.110Z,2.85
2019-02-27T01:56:46.092Z,2.85
2019-02-27T01:57:46.086Z,2.75
2019-02-27T01:58:46.072Z,2.75
2019-02-27T01:59:50.260Z,2.77
2019-02-27T02:00:46.056Z,2.71
2019-02-27T02:01:46.043Z,2.74
2019-02-27T02:02:46.028Z,2.71
2019-02-27T02:03:47.465Z,2.69
2019-02-27T02:04:46.022Z,2.63
2019-02-27T02:05:45.992Z,2.60
2019-02-27T02:06:45.990Z,2.57
2019-02-27T02:07:45.974Z,2.60
2019-02-27T02:08:48.235Z,2.60
2019-02-27T02:09:45.952Z,2.59
2019-02-27T02:10:45.946Z,2.60
2019-02-27T02:11:45.933Z,2.64
2019-02-27T02:12:45.918Z,2.66
2019-02-27T02:13:48.150Z,2.64
2019-02-27T02:14:45.908Z,2.61
2019-02-27T02:15:45.893Z,2.61
2019-02-27T02:16:45.892Z,2.64
2019-02-27T02:17:45.870Z,2.60
2019-02-27T02:18:48.154Z,2.63
2019-02-27T02:19:45.838Z,2.60
2019-02-27T02:20:45.834Z,2.52
2019-02-27T02:21:45.830Z,2.59
2019-02-27T02:22:45.818Z,2.57
2019-02-27T02:23:47.899Z,2.53
2019-02-27T02:24:45.795Z,2.61
2019-02-27T02:25:45.781Z,2.43
2019-02-27T02:26:45.775Z,2.52
2019-02-27T02:27:45.779Z,2.46
2019-02-27T02:28:48.046Z,2.46
2019-02-27T02:29:45.736Z,2.43
2019-02-27T02:30:45.737Z,2.36
2019-02-27T02:31:45.735Z,2.30
2019-02-27T02:32:52.016Z,2.34
2019-02-27T02:33:46.699Z,2.38
2019-02-27T02:34:45.689Z,2.41
2019-02-27T02:35:49.965Z,2.43
2019-02-27T02:36:45.661Z,2.31
2019-02-27T02:37:45.665Z,2.28
2019-02-27T02:38:45.648Z,2.18
2019-02-27T02:39:45.643Z,2.21
2019-02-27T02:40:45.635Z,2.17
2019-02-27T02:41:47.991Z,2.27
2019-02-27T02:42:45.597Z,2.14
2019-02-27T02:43:45.588Z,2.17
2019-02-27T02:44:45.582Z,2.21
2019-02-27T02:45:45.575Z,2.25
2019-02-27T02:46:46.380Z,2.17
2019-02-27T02:47:45.559Z,2.18
2019-02-27T02:48:45.544Z,2.27
2019-02-27T02:49:45.525Z,2.16
2019-02-27T02:50:45.548Z,2.14
2019-02-27T02:51:45.510Z,2.10
2019-02-27T02:52:45.500Z,2.18
2019-02-27T02:53:48.300Z,2.12
2019-02-27T02:54:45.482Z,2.12
2019-02-27T02:55:48.998Z,2.10
2019-02-27T02:56:45.466Z,2.17
2019-02-27T02:57:45.440Z,2.20
2019-02-27T02:58:48.427Z,2.30
2019-02-27T02:59:45.422Z,2.38
2019-02-27T03:00:45.419Z,2.42
2019-02-27T03:01:48.793Z,2.43
2019-02-27T03:02:45.405Z,2.42
2019-02-27T03:03:45.414Z,2.42
2019-02-27T03:04:48.412Z,2.43
2019-02-27T03:05:45.360Z,2.49
2019-02-27T03:06:45.348Z,2.45
2019-02-27T03:07:45.681Z,2.48
2019-02-27T03:08:45.329Z,2.49
2019-02-27T03:09:45.317Z,2.54
2019-02-27T03:10:45.319Z,2.52
2019-02-27T03:11:45.296Z,2.57
2019-02-27T03:12:45.289Z,2.52
2019-02-27T03:13:45.272Z,2.54
2019-02-27T03:14:45.260Z,2.54
2019-02-27T03:15:45.250Z,2.48
2019-02-27T03:16:45.261Z,2.39
2019-02-27T03:17:45.243Z,2.43
2019-02-27T03:18:45.223Z,2.48
2019-02-27T03:19:45.213Z,2.52
2019-02-27T03:20:45.206Z,2.45
2019-02-27T03:21:45.187Z,2.35
2019-02-27T03:22:45.175Z,2.36
2019-02-27T03:23:50.625Z,2.31
2019-02-27T03:24:46.155Z,2.36
2019-02-27T03:25:45.157Z,2.39
2019-02-27T03:26:45.153Z,2.35
2019-02-27T03:27:45.125Z,2.34
2019-02-27T03:28:45.113Z,2.35
2019-02-27T03:29:45.104Z,2.35
2019-02-27T03:30:45.107Z,2.30
2019-02-27T03:31:45.089Z,2.28
2019-02-27T03:32:45.077Z,2.20
2019-02-27T03:33:45.063Z,2.12
2019-02-27T03:34:50.315Z,2.14
2019-02-27T03:35:46.048Z,2.18
2019-02-27T03:36:45.035Z,2.09
2019-02-27T03:37:48.376Z,2.10
2019-02-27T03:38:45.012Z,2.27
2019-02-27T03:39:45.020Z,2.14
2019-02-27T03:40:48.003Z,2.21
2019-02-27T03:41:44.990Z,2.21
2019-02-27T03:42:44.979Z,2.27
2019-02-27T03:43:45.927Z,2.17
2019-02-27T03:44:44.949Z,2.16
2019-02-27T03:45:44.947Z,2.14
2019-02-27T03:46:44.939Z,2.20
2019-02-27T03:47:44.921Z,2.28
2019-02-27T03:48:44.907Z,2.34
2019-02-27T03:49:44.925Z,2.30
2019-02-27T03:50:49.419Z,2.30
2019-02-27T03:51:45.874Z,2.39
2019-02-27T03:52:44.860Z,2.30
2019-02-27T03:53:46.614Z,2.31
2019-02-27T03:54:44.839Z,2.34
2019-02-27T03:55:44.825Z,2.39
2019-02-27T03:56:44.890Z,2.42
2019-02-27T03:57:44.813Z,2.41
2019-02-27T03:58:44.799Z,2.43
2019-02-27T03:59:44.801Z,2.42
2019-02-27T04:00:44.779Z,2.49
2019-02-27T04:01:44.766Z,2.42
2019-02-27T04:02:44.753Z,2.42
2019-02-27T04:03:44.737Z,2.42
2019-02-27T04:04:44.734Z,2.53
2019-02-27T04:05:46.215Z,2.39
2019-02-27T04:06:44.711Z,2.42
2019-02-27T04:07:44.705Z,2.42
2019-02-27T04:08:45.035Z,2.42
2019-02-27T04:09:44.678Z,2.52
2019-02-27T04:10:44.674Z,2.38
2019-02-27T04:11:44.694Z,2.35
2019-02-27T04:12:44.647Z,2.36
2019-02-27T04:13:44.633Z,2.36
2019-02-27T04:14:44.635Z,2.31
2019-02-27T04:15:44.618Z,2.35
2019-02-27T04:16:44.684Z,2.35
2019-02-27T04:17:44.593Z,2.30
2019-02-27T04:18:44.601Z,2.28
2019-02-27T04:19:44.576Z,2.34
2019-02-27T04:20:49.751Z,2.25
2019-02-27T04:21:45.546Z,2.28
2019-02-27T04:22:44.537Z,2.35
2019-02-27T04:23:48.031Z,2.31
2019-02-27T04:24:44.518Z,2.31
2019-02-27T04:25:44.515Z,2.28
2019-02-27T04:26:44.502Z,2.28
2019-02-27T04:27:44.493Z,2.27
2019-02-27T04:28:44.474Z,2.25
2019-02-27T04:29:44.462Z,2.23
2019-02-27T04:30:44.452Z,2.18
2019-02-27T04:31:44.446Z,2.23
2019-02-27T04:32:47.931Z,2.30
2019-02-27T04:33:44.428Z,2.14
2019-02-27T04:34:44.408Z,2.12
2019-02-27T04:35:44.398Z,2.14
2019-02-27T04:36:46.901Z,2.14
2019-02-27T04:37:44.376Z,2.21
2019-02-27T04:38:44.374Z,2.14
2019-02-27T04:39:44.362Z,2.12
2019-02-27T04:40:44.780Z,2.10
2019-02-27T04:41:44.334Z,2.07
2019-02-27T04:42:44.323Z,2.09
2019-02-27T04:43:44.316Z,2.07
2019-02-27T04:44:44.330Z,2.03
2019-02-27T04:45:46.789Z,2.03
2019-02-27T04:46:44.280Z,1.91
2019-02-27T04:47:44.272Z,1.88
2019-02-27T04:48:44.284Z,1.93
2019-02-27T04:49:44.251Z,1.91
2019-02-27T04:50:44.763Z,2.06
2019-02-27T04:51:44.231Z,2.00
2019-02-27T04:52:44.217Z,2.06
2019-02-27T04:53:44.204Z,2.02
2019-02-27T04:54:44.203Z,2.05
2019-02-27T04:55:44.189Z,2.05
2019-02-27T04:56:44.182Z,1.98
2019-02-27T04:57:44.161Z,2.06
2019-02-27T04:58:44.156Z,1.93
2019-02-27T04:59:44.140Z,2.05
2019-02-27T05:00:44.136Z,2.09
2019-02-27T05:01:44.132Z,2.12
2019-02-27T05:02:44.112Z,2.12
2019-02-27T05:03:44.096Z,2.06
2019-02-27T05:04:44.089Z,2.09
2019-02-27T05:05:44.084Z,2.09
2019-02-27T05:06:46.951Z,2.09
2019-02-27T05:07:44.064Z,2.06
2019-02-27T05:08:44.066Z,2.03
2019-02-27T05:09:44.033Z,2.06
2019-02-27T05:10:44.025Z,2.06
2019-02-27T05:11:47.597Z,2.07
2019-02-27T05:12:47.853Z,2.07
2019-02-27T05:13:44.000Z,1.99
2019-02-27T05:14:43.988Z,1.91
2019-02-27T05:15:43.973Z,1.90
2019-02-27T05:16:47.010Z,1.84
2019-02-27T05:17:43.949Z,1.93
2019-02-27T05:18:43.952Z,1.86
2019-02-27T05:19:43.942Z,1.93
2019-02-27T05:20:45.692Z,1.95
2019-02-27T05:21:43.912Z,1.90
2019-02-27T05:22:43.898Z,1.90
2019-02-27T05:23:43.890Z,1.91
2019-02-27T05:24:43.884Z,1.90
2019-02-27T05:25:43.895Z,1.91
2019-02-27T05:26:43.854Z,1.90
2019-02-27T05:27:43.854Z,1.91
2019-02-27T05:28:43.845Z,1.81
2019-02-27T05:29:43.827Z,1.81
2019-02-27T05:30:45.206Z,1.73
2019-02-27T05:31:43.808Z,1.79
2019-02-27T05:32:43.798Z,1.79
2019-02-27T05:33:43.782Z,1.79
2019-02-27T05:34:43.787Z,1.77
2019-02-27T05:35:43.767Z,1.81
2019-02-27T05:36:43.764Z,1.79
2019-02-27T05:37:45.217Z,1.77
2019-02-27T05:38:44.212Z,1.86
2019-02-27T05:39:43.734Z,1.84
2019-02-27T05:40:43.708Z,1.83
2019-02-27T05:41:43.701Z,1.91
2019-02-27T05:42:43.710Z,1.88
2019-02-27T05:43:47.740Z,1.95
2019-02-27T05:44:43.668Z,1.86
2019-02-27T05:45:43.654Z,1.81
2019-02-27T05:46:43.642Z,1.79
2019-02-27T05:47:45.830Z,1.76
2019-02-27T05:48:43.636Z,1.77
2019-02-27T05:49:43.610Z,1.79
2019-02-27T05:50:44.427Z,1.79
2019-02-27T05:51:43.595Z,1.70
2019-02-27T05:52:48.381Z,1.65
2019-02-27T05:53:44.571Z,1.68
2019-02-27T05:54:43.562Z,1.66
2019-02-27T05:55:43.558Z,1.70
2019-02-27T05:56:43.541Z,1.68
2019-02-27T05:57:43.528Z,1.65
2019-02-27T05:58:43.528Z,1.62
2019-02-27T05:59:43.517Z,1.62
2019-02-27T06:00:43.777Z,1.69
2019-02-27T06:01:43.486Z,1.73
2019-02-27T06:02:44.898Z,1.72
2019-02-27T06:03:43.467Z,1.72
2019-02-27T06:04:43.452Z,1.70
2019-02-27T06:05:49.410Z,1.73
2019-02-27T06:06:45.678Z,1.76
2019-02-27T06:07:43.423Z,1.80
2019-02-27T06:08:43.415Z,1.87
2019-02-27T06:09:43.841Z,1.91
2019-02-27T06:10:43.399Z,1.88
2019-02-27T06:11:43.386Z,1.88
2019-02-27T06:12:43.475Z,1.91
2019-02-27T06:13:47.178Z,2.03
2019-02-27T06:14:43.349Z,2.06
2019-02-27T06:15:43.342Z,1.88
2019-02-27T06:16:43.336Z,2.02
2019-02-27T06:17:43.805Z,2.02
2019-02-27T06:18:44.323Z,2.06
2019-02-27T06:19:43.295Z,2.02
2019-02-27T06:20:43.285Z,1.95
2019-02-27T06:21:43.292Z,2.06
2019-02-27T06:22:43.360Z,2.05
2019-02-27T06:23:43.278Z,2.02
2019-02-27T06:24:45.589Z,2.03
2019-02-27T06:25:43.233Z,2.00
2019-02-27T06:26:43.220Z,2.12
2019-02-27T06:27:43.210Z,2.07
2019-02-27T06:28:43.198Z,1.98
2019-02-27T06:29:43.189Z,2.00
2019-02-27T06:30:43.176Z,2.00
2019-02-27T06:31:43.172Z,2.05
2019-02-27T06:32:43.157Z,2.06
2019-02-27T06:33:45.764Z,2.07
2019-02-27T06:34:43.142Z,2.18
2019-02-27T06:35:43.123Z,2.16
2019-02-27T06:36:43.134Z,2.21
2019-02-27T06:37:43.101Z,2.17
2019-02-27T06:38:43.095Z,2.17
2019-02-27T06:39:43.101Z,2.34
2019-02-27T06:40:43.073Z,2.34
2019-02-27T06:41:43.063Z,2.30
2019-02-27T06:42:43.056Z,2.31
2019-02-27T06:43:43.046Z,2.30
2019-02-27T06:44:43.030Z,2.34
2019-02-27T06:45:45.508Z,2.36
2019-02-27T06:46:44.488Z,2.34
2019-02-27T06:47:43.007Z,2.41
2019-02-27T06:48:44.053Z,2.48
2019-02-27T06:49:42.975Z,2.49
2019-02-27T06:50:42.969Z,2.52
2019-02-27T06:51:42.953Z,2.52
2019-02-27T06:52:43.098Z,2.48
2019-02-27T06:53:42.930Z,2.49
2019-02-27T06:54:42.917Z,2.57
2019-02-27T06:55:42.918Z,2.64
2019-02-27T06:56:42.907Z,2.60
2019-02-27T06:57:42.897Z,2.71
2019-02-27T06:58:42.871Z,2.60
2019-02-27T06:59:42.875Z,2.57
2019-02-27T07:00:42.857Z,2.63
2019-02-27T07:01:45.111Z,2.69
2019-02-27T07:02:42.830Z,2.74
2019-02-27T07:03:42.819Z,2.89
2019-02-27T07:04:42.811Z,2.90
2019-02-27T07:05:42.819Z,3.00
2019-02-27T07:06:42.789Z,3.06
2019-02-27T07:07:42.803Z,3.23
2019-02-27T07:08:42.776Z,3.29
2019-02-27T07:09:43.233Z,3.36
2019-02-27T07:10:42.768Z,3.48
2019-02-27T07:11:46.235Z,3.69
2019-02-27T07:12:43.719Z,3.70
2019-02-27T07:13:42.752Z,3.84
2019-02-27T07:14:42.697Z,4.11
2019-02-27T07:15:47.698Z,4.18
2019-02-27T07:16:43.695Z,4.26
2019-02-27T07:17:42.668Z,4.33
2019-02-27T07:18:42.664Z,4.50
2019-02-27T07:19:42.668Z,4.54
2019-02-27T07:20:42.640Z,4.70
2019-02-27T07:21:42.624Z,5.00
2019-02-27T07:22:45.643Z,5.33
2019-02-27T07:23:42.612Z,5.72
2019-02-27T07:24:42.613Z,6.12
2019-02-27T07:25:42.877Z,6.49
2019-02-27T07:26:42.576Z,7.06
2019-02-27T07:27:42.557Z,7.87
2019-02-27T07:28:43.605Z,8.52
2019-02-27T07:29:42.975Z,9.36
2019-02-27T07:30:43.259Z,10.20
2019-02-27T07:31:42.524Z,10.81
2019-02-27T07:32:42.501Z,11.37
2019-02-27T07:33:42.502Z,11.99
2019-02-27T07:34:42.489Z,12.62
2019-02-27T07:35:42.482Z,13.01
2019-02-27T07:36:42.464Z,13.59
2019-02-27T07:37:46.835Z,14.04
2019-02-27T07:38:43.450Z,14.40
2019-02-27T07:39:42.433Z,14.64
2019-02-27T07:40:43.019Z,15.10
2019-02-27T07:41:42.429Z,15.47
2019-02-27T07:42:42.396Z,15.78
2019-02-27T07:43:42.390Z,16.02
2019-02-27T07:44:42.377Z,16.34
2019-02-27T07:45:42.680Z,16.75
2019-02-27T07:46:42.372Z,16.91
2019-02-27T07:47:42.356Z,17.16
2019-02-27T07:48:42.335Z,17.19
2019-02-27T07:49:42.322Z,17.30
2019-02-27T07:50:42.312Z,17.55
2019-02-27T07:51:42.303Z,17.55
2019-02-27T07:52:42.305Z,17.52
2019-02-27T07:53:42.277Z,17.87
2019-02-27T07:54:42.268Z,18.30
2019-02-27T07:55:42.255Z,18.48
2019-02-27T07:56:42.251Z,18.65
2019-02-27T07:57:42.243Z,18.52
2019-02-27T07:58:42.232Z,18.50
2019-02-27T07:59:42.212Z,18.91
2019-02-27T08:00:42.847Z,19.26
2019-02-27T08:01:44.003Z,19.59
2019-02-27T08:02:42.190Z,19.46
2019-02-27T08:03:44.915Z,19.55
2019-02-27T08:04:42.162Z,19.94
2019-02-27T08:05:42.155Z,20.33
2019-02-27T08:06:42.143Z,20.72
2019-02-27T08:07:42.128Z,21.03
2019-02-27T08:08:42.140Z,21.32
2019-02-27T08:09:42.115Z,21.49
2019-02-27T08:10:42.106Z,21.52
2019-02-27T08:11:42.084Z,21.62
2019-02-27T08:12:42.075Z,21.17
2019-02-27T08:13:42.069Z,21.25
2019-02-27T08:14:42.069Z,21.19
2019-02-27T08:15:42.061Z,21.43
2019-02-27T08:16:42.029Z,21.71
2019-02-27T08:17:42.080Z,22.05
2019-02-27T08:18:42.014Z,22.37
2019-02-27T08:19:42.891Z,22.47
2019-02-27T08:20:42.002Z,22.43
2019-02-27T08:21:41.994Z,22.55
2019-02-27T08:22:41.975Z,22.55
2019-02-27T08:23:41.964Z,22.70
2019-02-27T08:24:41.946Z,22.43
2019-02-27T08:25:41.937Z,22.05
2019-02-27T08:26:41.931Z,22.36
2019-02-27T08:27:43.742Z,22.57
2019-02-27T08:28:41.914Z,23.15
2019-02-27T08:29:41.899Z,23.42
2019-02-27T08:30:41.898Z,23.63
2019-02-27T08:31:41.897Z,23.60
2019-02-27T08:32:41.868Z,23.55
2019-02-27T08:33:41.880Z,23.55
2019-02-27T08:34:41.851Z,23.58
2019-02-27T08:35:41.844Z,23.76
2019-02-27T08:36:41.827Z,23.72
2019-02-27T08:37:41.816Z,23.73
2019-02-27T08:38:41.818Z,24.16
2019-02-27T08:39:41.803Z,24.00
2019-02-27T08:40:41.787Z,23.20
2019-02-27T08:41:41.787Z,23.46
2019-02-27T08:42:41.781Z,23.72
2019-02-27T08:43:41.991Z,23.91
2019-02-27T08:44:42.992Z,24.22
2019-02-27T08:45:41.765Z,24.83
2019-02-27T08:46:41.730Z,25.09
2019-02-27T08:47:43.443Z,25.17
2019-02-27T08:48:41.710Z,25.03
2019-02-27T08:49:42.528Z,24.85
2019-02-27T08:50:41.693Z,25.20
2019-02-27T08:51:42.092Z,25.08
2019-02-27T08:52:41.672Z,24.39
2019-02-27T08:53:41.658Z,24.10
2019-02-27T08:54:41.659Z,23.90
2019-02-27T08:55:41.642Z,24.46
2019-02-27T08:56:44.149Z,24.88
2019-02-27T08:57:42.618Z,25.30
2019-02-27T08:58:41.635Z,25.57
2019-02-27T08:59:41.604Z,25.97
2019-02-27T09:00:41.602Z,25.85
2019-02-27T09:01:41.584Z,25.57
2019-02-27T09:02:41.582Z,25.90
2019-02-27T09:03:41.567Z,25.61
2019-02-27T09:04:45.121Z,25.67
2019-02-27T09:05:41.546Z,25.39
2019-02-27T09:06:41.532Z,25.51
2019-02-27T09:07:43.111Z,25.90
2019-02-27T09:08:44.100Z,25.97
2019-02-27T09:09:41.509Z,26.43
2019-02-27T09:10:41.502Z,26.39
2019-02-27T09:11:41.492Z,25.92
2019-02-27T09:12:41.478Z,25.33
2019-02-27T09:13:41.474Z,24.96
2019-02-27T09:14:41.468Z,25.15
2019-02-27T09:15:41.795Z,25.58
2019-02-27T09:16:41.442Z,26.26
2019-02-27T09:17:41.451Z,26.75
2019-02-27T09:18:41.422Z,26.73
2019-02-27T09:19:45.305Z,26.66
2019-02-27T09:20:41.414Z,26.48
2019-02-27T09:21:41.408Z,26.57
2019-02-27T09:22:41.391Z,26.06
2019-02-27T09:23:41.380Z,26.45
2019-02-27T09:24:41.374Z,25.82
2019-02-27T09:25:42.317Z,25.88
2019-02-27T09:26:42.416Z,25.88
2019-02-27T09:27:41.359Z,25.88
2019-02-27T09:28:44.077Z,26.06
2019-02-27T09:29:41.325Z,26.23
2019-02-27T09:30:41.323Z,25.91
2019-02-27T09:31:50.562Z,25.65
2019-02-27T09:32:43.282Z,26.02
2019-02-27T09:33:41.291Z,25.88
2019-02-27T09:34:41.283Z,25.30
2019-02-27T09:35:41.268Z,25.08
2019-02-27T09:36:43.310Z,25.30
2019-02-27T09:37:41.361Z,25.39
2019-02-27T09:38:41.261Z,24.81
2019-02-27T09:39:41.246Z,24.96
2019-02-27T09:40:41.221Z,24.98
2019-02-27T09:41:46.085Z,24.45
2019-02-27T09:42:42.212Z,24.31
2019-02-27T09:43:41.196Z,24.31
2019-02-27T09:44:41.199Z,24.58
2019-02-27T09:45:46.333Z,24.87
2019-02-27T09:46:42.176Z,24.40
2019-02-27T09:47:41.160Z,24.35
2019-02-27T09:48:41.221Z,23.97
2019-02-27T09:49:41.564Z,23.60
2019-02-27T09:50:41.219Z,22.79
2019-02-27T09:51:41.122Z,23.12
2019-02-27T09:52:41.120Z,22.85
2019-02-27T09:53:41.103Z,22.82
2019-02-27T09:54:41.100Z,23.28
2019-02-27T09:55:41.084Z,23.50
2019-02-27T09:56:41.071Z,23.43
2019-02-27T09:57:41.063Z,23.12
2019-02-27T09:58:45.249Z,23.16
2019-02-27T09:59:41.046Z,23.43
2019-02-27T10:00:41.049Z,23.61
2019-02-27T10:01:41.029Z,23.50
2019-02-27T10:02:43.173Z,23.25
2019-02-27T10:03:42.012Z,22.98
2019-02-27T10:04:41.000Z,22.12
2019-02-27T10:05:41.036Z,21.82
2019-02-27T10:06:42.848Z,21.82
2019-02-27T10:07:40.967Z,21.79
2019-02-27T10:08:40.965Z,21.92
2019-02-27T10:09:40.990Z,21.68
2019-02-27T10:10:44.884Z,21.88
2019-02-27T10:11:40.937Z,22.17
2019-02-27T10:12:42.294Z,22.07
2019-02-27T10:13:40.917Z,22.28
2019-02-27T10:14:40.906Z,22.49
2019-02-27T10:15:40.899Z,22.25
2019-02-27T10:16:40.898Z,22.40
2019-02-27T10:17:41.044Z,22.57
2019-02-27T10:18:40.870Z,22.58
2019-02-27T10:19:40.879Z,22.61
2019-02-27T10:20:40.855Z,22.70
2019-02-27T10:21:41.359Z,22.68
2019-02-27T10:22:40.832Z,22.60
2019-02-27T10:23:40.820Z,22.18
2019-02-27T10:24:40.811Z,21.94
2019-02-27T10:25:43.235Z,22.12
2019-02-27T10:26:40.797Z,22.20
2019-02-27T10:27:40.789Z,21.92
2019-02-27T10:28:40.773Z,22.10
2019-02-27T10:29:40.784Z,22.17
2019-02-27T10:30:40.761Z,21.13
2019-02-27T10:31:40.748Z,20.48
2019-02-27T10:32:40.746Z,20.26
2019-02-27T10:33:42.906Z,20.03
2019-02-27T10:34:40.717Z,20.01
2019-02-27T10:35:40.709Z,20.26
2019-02-27T10:36:40.699Z,20.42
2019-02-27T10:37:40.763Z,20.76
2019-02-27T10:38:40.684Z,21.04
2019-02-27T10:39:40.676Z,21.22
2019-02-27T10:40:40.659Z,21.27
2019-02-27T10:41:40.659Z,21.21
2019-02-27T10:42:40.647Z,21.32
2019-02-27T10:43:40.628Z,21.65
2019-02-27T10:44:40.627Z,22.00
2019-02-27T10:45:42.150Z,21.53
2019-02-27T10:46:40.610Z,21.47
2019-02-27T10:47:40.592Z,21.62
2019-02-27T10:48:40.580Z,21.74
2019-02-27T10:49:40.567Z,21.59
2019-02-27T10:50:40.560Z,21.46
2019-02-27T10:51:41.487Z,21.32
2019-02-27T10:52:40.539Z,21.46
2019-02-27T10:53:40.562Z,20.91
2019-02-27T10:54:40.517Z,20.76
2019-02-27T10:55:40.502Z,20.38
2019-02-27T10:56:40.508Z,20.17
2019-02-27T10:57:40.494Z,20.16
2019-02-27T10:58:40.483Z,20.38
2019-02-27T10:59:40.462Z,20.59
2019-02-27T11:00:40.461Z,20.42
2019-02-27T11:01:40.447Z,20.64
2019-02-27T11:02:40.430Z,20.66
2019-02-27T11:03:40.433Z,20.54
2019-02-27T11:04:40.421Z,20.76
2019-02-27T11:05:40.433Z,20.70
2019-02-27T11:06:40.392Z,20.69
2019-02-27T11:07:40.385Z,20.43
2019-02-27T11:08:40.374Z,20.70
2019-02-27T11:09:41.285Z,20.76
2019-02-27T11:10:40.352Z,20.62
2019-02-27T11:11:40.336Z,20.66
2019-02-27T11:12:40.327Z,20.21
2019-02-27T11:13:40.317Z,20.23
2019-02-27T11:14:40.312Z,20.52
2019-02-27T11:15:41.448Z,20.52
2019-02-27T11:16:40.310Z,20.42
2019-02-27T11:17:40.286Z,20.28
2019-02-27T11:18:40.273Z,20.01
2019-02-27T11:19:40.262Z,19.22
2019-02-27T11:20:40.243Z,19.31
2019-02-27T11:21:40.236Z,19.63
2019-02-27T11:22:40.222Z,19.43
2019-02-27T11:23:41.242Z,19.41
2019-02-27T11:24:40.200Z,19.62
2019-02-27T11:25:40.202Z,19.59
2019-02-27T11:26:40.187Z,19.65
2019-02-27T11:27:40.178Z,19.59
2019-02-27T11:28:40.166Z,19.28
2019-02-27T11:29:40.151Z,19.18
2019-02-27T11:30:40.144Z,19.18
2019-02-27T11:31:42.308Z,19.23
2019-02-27T11:32:41.111Z,19.59
2019-02-27T11:33:40.111Z,19.66
2019-02-27T11:34:40.101Z,19.54
2019-02-27T11:35:40.090Z,19.26
2019-02-27T11:36:40.071Z,19.26
2019-02-27T11:37:40.061Z,19.26
2019-02-27T11:38:40.058Z,19.14
2019-02-27T11:39:40.058Z,18.90
2019-02-27T11:40:42.645Z,18.72
2019-02-27T11:41:40.037Z,18.66
2019-02-27T11:42:40.023Z,18.52
2019-02-27T11:43:40.815Z,18.63
2019-02-27T11:44:40.027Z,18.62
2019-02-27T11:45:39.977Z,18.88
2019-02-27T11:46:39.969Z,18.92
2019-02-27T11:47:44.697Z,19.07
2019-02-27T11:48:40.949Z,18.87
2019-02-27T11:49:39.939Z,18.88
2019-02-27T11:50:39.924Z,18.91
2019-02-27T11:51:39.944Z,18.88
2019-02-27T11:52:46.243Z,18.55
2019-02-27T11:53:40.892Z,18.45
2019-02-27T11:54:42.935Z,18.30
2019-02-27T11:55:39.882Z,18.05
2019-02-27T11:56:39.857Z,17.81
2019-02-27T11:57:39.846Z,17.72
2019-02-27T11:58:39.835Z,17.68
2019-02-27T11:59:39.822Z,17.68
2019-02-27T12:00:39.810Z,17.72
2019-02-27T12:01:39.856Z,17.81
2019-02-27T12:02:39.787Z,17.89
2019-02-27T12:03:39.779Z,17.99
2019-02-27T12:04:39.767Z,18.05
2019-02-27T12:05:39.750Z,18.32
2019-02-27T12:06:41.591Z,18.37
2019-02-27T12:07:39.736Z,18.41
2019-02-27T12:08:39.721Z,18.44
2019-02-27T12:09:39.715Z,18.55
2019-02-27T12:10:39.712Z,18.54
2019-02-27T12:11:39.695Z,18.75
2019-02-27T12:12:39.701Z,18.94
2019-02-27T12:13:39.669Z,18.95
2019-02-27T12:14:39.664Z,19.00
2019-02-27T12:15:43.307Z,18.98
2019-02-27T12:16:39.643Z,18.99
2019-02-27T12:17:39.631Z,19.00
2019-02-27T12:18:39.628Z,18.91
2019-02-27T12:19:42.521Z,18.85
2019-02-27T12:20:39.596Z,19.00
2019-02-27T12:21:39.583Z,19.22
2019-02-27T12:22:39.577Z,19.37
2019-02-27T12:23:41.216Z,19.50
2019-02-27T12:24:39.566Z,19.65
2019-02-27T12:25:39.539Z,19.48
2019-02-27T12:26:39.529Z,19.55
2019-02-27T12:27:49.059Z,19.66
2019-02-27T12:28:40.518Z,19.63
2019-02-27T12:29:39.504Z,19.54
2019-02-27T12:30:39.483Z,19.59
2019-02-27T12:31:39.491Z,19.54
2019-02-27T12:32:39.479Z,19.29
2019-02-27T12:33:39.472Z,19.19
2019-02-27T12:34:39.464Z,19.04
2019-02-27T12:35:44.143Z,18.91
2019-02-27T12:36:40.421Z,18.67
2019-02-27T12:37:39.453Z,18.51
2019-02-27T12:38:42.346Z,18.51
2019-02-27T12:39:39.435Z,18.51
2019-02-27T12:40:39.443Z,18.44
2019-02-27T12:41:39.369Z,18.17
2019-02-27T12:42:42.538Z,17.92
2019-02-27T12:43:39.353Z,17.87
2019-02-27T12:44:39.343Z,17.81
2019-02-27T12:45:39.326Z,17.93
2019-02-27T12:46:39.331Z,17.99
2019-02-27T12:47:40.676Z,18.10
2019-02-27T12:48:39.287Z,18.26
2019-02-27T12:49:39.273Z,18.32
2019-02-27T12:50:39.283Z,18.27
2019-02-27T12:51:39.258Z,18.29
2019-02-27T12:52:39.245Z,18.18
2019-02-27T12:53:39.236Z,18.02
2019-02-27T12:54:39.219Z,18.08
2019-02-27T12:55:39.214Z,18.21
2019-02-27T12:56:43.215Z,18.26
2019-02-27T12:57:40.192Z,18.33
2019-02-27T12:58:39.186Z,18.48
2019-02-27T12:59:39.166Z,18.37
2019-02-27T13:00:39.947Z,18.52
2019-02-27T13:01:39.141Z,18.76
2019-02-27T13:02:39.147Z,18.70
2019-02-27T13:03:42.260Z,18.57
2019-02-27T13:04:39.121Z,18.55
2019-02-27T13:05:39.101Z,18.50
2019-02-27T13:06:39.090Z,18.37
2019-02-27T13:07:39.076Z,18.42